Time;durP1;ratioP1;P1;durP2;ratioP2;P2;SDS_P1;SDS_P2;PMS_P1;PMS_P2;Temp;Humidity;BMP_temperature;BMP_pressure;BME280_temperature;BME280_humidity;BME280_pressure;Samples;Min_cycle;Max_cycle;Signal;HPM_P1;HPM_P2
2022/03/10 00:02:24;;;;;;;31.40;14.55;;;;;;;3.29;51.67;102137.25;4999492;28;20044;-80
2022/03/10 00:04:50;;;;;;;33.17;15.02;;;;;;;3.19;52.36;102136.88;5011395;28;20044;-80
2022/03/10 00:07:16;;;;;;;32.03;13.60;;;;;;;3.28;52.00;102146.69;4993079;28;20041;-79
2022/03/10 00:09:41;;;;;;;30.75;14.30;;;;;;;3.17;51.88;102143.84;4993170;28;20029;-80
2022/03/10 00:12:07;;;;;;;29.25;14.13;;;;;;;3.14;52.21;102138.03;5011141;28;20447;-79
2022/03/10 00:14:33;;;;;;;29.85;14.27;;;;;;;3.21;51.90;102144.50;4996053;28;20546;-80
2022/03/10 00:16:58;;;;;;;28.58;14.10;;;;;;;3.21;51.58;102147.06;5008512;28;20037;-79
2022/03/10 00:19:24;;;;;;;33.92;13.50;;;;;;;3.21;51.71;102154.75;4995014;28;20029;-80
2022/03/10 00:21:50;;;;;;;30.75;13.55;;;;;;;3.22;51.40;102154.69;5012547;28;20022;-80
2022/03/10 00:24:18;;;;;;;30.45;14.23;;;;;;;3.23;51.16;102155.53;4996973;28;20030;-80
2022/03/10 00:26:44;;;;;;;30.00;13.20;;;;;;;3.27;50.91;102162.16;5005608;28;20026;-79
2022/03/10 00:29:10;;;;;;;28.10;14.00;;;;;;;3.27;50.79;102157.84;5022630;28;20119;-80
2022/03/10 00:31:35;;;;;;;28.67;13.02;;;;;;;3.34;50.82;102155.00;5008310;28;20445;-78
2022/03/10 00:34:01;;;;;;;37.00;15.00;;;;;;;3.31;50.65;102154.25;4989625;28;20893;-78
2022/03/10 00:36:27;;;;;;;27.50;12.88;;;;;;;3.37;50.29;102158.25;5003536;28;20116;-78
2022/03/10 00:38:52;;;;;;;25.08;12.77;;;;;;;3.34;50.19;102163.50;5003589;28;20018;-78
2022/03/10 00:41:18;;;;;;;32.00;14.88;;;;;;;3.31;50.16;102163.66;5013267;28;20033;-78
2022/03/10 00:43:44;;;;;;;28.45;13.75;;;;;;;3.31;49.89;102166.22;5007428;28;20102;-78
2022/03/10 00:46:09;;;;;;;29.83;14.10;;;;;;;3.41;49.60;102164.88;5021797;28;20037;-78
2022/03/10 00:48:36;;;;;;;29.67;14.02;;;;;;;3.33;50.26;102163.59;4994272;28;20041;-78
2022/03/10 00:51:02;;;;;;;30.77;13.63;;;;;;;3.29;50.24;102165.47;5009919;28;20033;-77
2022/03/10 00:53:28;;;;;;;35.83;13.68;;;;;;;3.26;50.18;102166.47;5007642;28;20132;-77
2022/03/10 00:55:53;;;;;;;31.25;13.60;;;;;;;3.37;49.79;102173.63;4992218;28;20057;-79
2022/03/10 00:58:19;;;;;;;39.45;15.75;;;;;;;3.28;50.00;102169.78;4991216;28;20037;-77
2022/03/10 01:00:44;;;;;;;34.08;15.05;;;;;;;3.17;50.41;102178.91;4997648;28;20037;-78
2022/03/10 01:03:10;;;;;;;36.95;15.45;;;;;;;3.15;50.90;102175.59;4994812;28;20430;-78
2022/03/10 01:05:35;;;;;;;38.35;15.52;;;;;;;3.14;51.05;102169.59;4984146;28;20045;-78
2022/03/10 01:08:01;;;;;;;36.33;16.25;;;;;;;3.12;51.40;102164.53;5024080;28;20037;-78
2022/03/10 01:10:26;;;;;;;33.03;15.20;;;;;;;3.09;51.08;102161.31;4993984;28;20037;-78
2022/03/10 01:12:52;;;;;;;36.88;17.17;;;;;;;2.96;51.31;102161.06;4996830;28;20030;-78
2022/03/10 01:15:24;;;;;;;31.40;14.50;;;;;;;2.93;51.44;102169.72;4989052;28;20044;-78
2022/03/10 01:17:50;;;;;;;36.88;15.57;;;;;;;2.88;51.60;102161.44;5007597;28;20032;-77
2022/03/10 01:20:21;;;;;;;36.58;15.95;;;;;;;2.80;52.27;102165.25;5009552;28;20115;-78
2022/03/10 01:22:46;;;;;;;31.65;15.30;;;;;;;2.75;52.31;102160.38;5021341;28;20176;-78
2022/03/10 01:25:12;;;;;;;33.10;15.13;;;;;;;2.68;52.85;102166.69;5012125;28;20473;-79
2022/03/10 01:27:40;;;;;;;31.52;14.85;;;;;;;2.66;52.77;102155.66;5009724;28;20120;-78
2022/03/10 01:30:07;;;;;;;38.45;16.27;;;;;;;2.60;52.67;102163.63;5029338;28;20041;-77
2022/03/10 01:32:34;;;;;;;32.03;15.20;;;;;;;2.63;52.33;102159.19;5012488;28;20095;-78
2022/03/10 01:35:01;;;;;;;31.85;14.52;;;;;;;2.71;52.11;102157.13;5010020;28;20034;-78
2022/03/10 01:37:27;;;;;;;41.40;16.55;;;;;;;2.72;52.29;102161.31;5010697;28;20030;-79
2022/03/10 01:39:52;;;;;;;34.47;15.48;;;;;;;2.81;51.88;102157.50;5012380;28;20032;-78
2022/03/10 01:42:18;;;;;;;41.92;16.17;;;;;;;2.95;51.34;102150.91;5006924;28;20128;-78
2022/03/10 01:44:44;;;;;;;32.08;14.73;;;;;;;2.97;51.16;102157.59;5018542;28;20025;-77
2022/03/10 01:47:10;;;;;;;32.00;15.32;;;;;;;2.83;51.35;102148.00;4996237;28;20042;-78
2022/03/10 01:49:36;;;;;;;36.20;15.77;;;;;;;2.83;51.04;102153.13;5028693;28;20033;-77
2022/03/10 01:52:03;;;;;;;39.33;15.23;;;;;;;2.73;51.55;102154.47;5012520;28;20068;-77
2022/03/10 01:54:29;;;;;;;36.17;15.45;;;;;;;2.87;50.89;102157.22;5024810;28;20185;-78
2022/03/10 01:56:55;;;;;;;36.15;15.82;;;;;;;2.88;50.82;102158.03;5012479;28;20492;-78
2022/03/10 01:59:20;;;;;;;38.80;15.40;;;;;;;2.90;50.33;102156.22;5012357;28;20053;-77
2022/03/10 02:01:46;;;;;;;38.38;16.20;;;;;;;2.96;50.13;102155.09;4992213;28;20029;-78
2022/03/10 02:04:12;;;;;;;37.75;15.77;;;;;;;2.95;50.31;102144.03;4993054;28;20509;-78
2022/03/10 02:06:38;;;;;;;41.95;16.33;;;;;;;2.89;50.58;102145.16;4992669;28;20083;-77
2022/03/10 02:11:50;;;;;;;38.08;15.23;;;;;;;2.96;50.40;102152.53;5017174;28;20566;-77
2022/03/10 02:19:44;;;;;;;33.33;15.18;;;;;;;2.83;50.43;102142.91;5008045;28;20029;-78
2022/03/10 02:22:11;;;;;;;38.58;15.23;;;;;;;2.78;50.82;102144.00;5012389;28;20037;-78
2022/03/10 02:24:43;;;;;;;35.22;16.55;;;;;;;2.69;50.58;102143.56;4995118;28;20282;-78
2022/03/10 02:27:12;;;;;;;33.33;14.57;;;;;;;2.70;50.68;102139.25;5021696;28;20131;-79
2022/03/10 02:29:40;;;;;;;33.58;14.93;;;;;;;2.73;50.49;102146.78;5015195;28;20040;-79
2022/03/10 02:32:05;;;;;;;35.78;16.38;;;;;;;2.68;50.81;102143.63;4995696;28;20049;-77
2022/03/10 02:34:31;;;;;;;35.83;15.02;;;;;;;2.59;50.96;102139.75;5010291;28;20057;-78
2022/03/10 02:36:56;;;;;;;37.45;15.45;;;;;;;2.55;51.52;102137.41;5012664;28;20022;-78
2022/03/10 02:39:21;;;;;;;40.08;16.05;;;;;;;2.58;51.16;102143.22;5013230;28;20099;-78
2022/03/10 02:41:47;;;;;;;33.63;14.85;;;;;;;2.65;50.54;102126.63;4996888;28;20032;-78
2022/03/10 02:44:12;;;;;;;42.55;16.00;;;;;;;2.70;50.92;102140.06;5012914;28;20047;-78
2022/03/10 02:46:38;;;;;;;30.13;13.70;;;;;;;2.63;50.82;102137.88;5010069;28;20071;-77
2022/03/10 02:49:05;;;;;;;31.73;14.65;;;;;;;2.60;50.99;102136.28;5032849;28;20030;-77
2022/03/10 02:51:30;;;;;;;34.92;15.88;;;;;;;2.63;50.96;102135.31;5014051;28;20037;-78
2022/03/10 02:53:55;;;;;;;32.85;14.02;;;;;;;2.51;51.49;102127.31;4994965;28;20029;-79
2022/03/10 02:56:21;;;;;;;40.95;15.90;;;;;;;2.49;51.32;102134.22;4999410;28;20060;-77
2022/03/10 02:58:46;;;;;;;32.88;14.73;;;;;;;2.47;51.30;102136.03;5013630;28;20025;-77
2022/03/10 03:01:12;;;;;;;36.55;14.93;;;;;;;2.48;51.43;102130.00;4998359;28;20037;-78
2022/03/10 03:03:37;;;;;;;38.15;14.13;;;;;;;2.52;51.13;102130.69;4998502;28;20029;-77
2022/03/10 03:06:03;;;;;;;33.58;15.15;;;;;;;2.52;51.56;102131.53;5009379;28;20034;-78
2022/03/10 03:08:28;;;;;;;34.22;15.25;;;;;;;2.46;51.65;102133.53;5008321;28;20376;-78
2022/03/10 03:10:54;;;;;;;35.80;15.27;;;;;;;2.57;51.44;102136.44;5008061;28;20038;-77
2022/03/10 03:13:19;;;;;;;43.35;15.35;;;;;;;2.44;51.54;102130.22;5011859;28;20030;-78
2022/03/10 03:15:45;;;;;;;30.73;13.40;;;;;;;2.40;51.72;102132.09;4994918;28;20037;-78
2022/03/10 03:18:10;;;;;;;41.22;15.60;;;;;;;2.28;52.23;102143.72;4995037;28;20045;-77
2022/03/10 03:20:36;;;;;;;28.92;14.75;;;;;;;2.25;52.24;102145.59;4994128;28;20033;-78
2022/03/10 03:23:01;;;;;;;30.67;14.63;;;;;;;2.30;52.35;102143.66;4998876;28;20545;-78
2022/03/10 03:25:27;;;;;;;34.88;13.70;;;;;;;2.37;52.26;102144.19;5014240;28;20021;-78
2022/03/10 03:27:52;;;;;;;41.38;13.77;;;;;;;2.38;52.12;102139.00;4996911;28;20041;-77
2022/03/10 03:30:18;;;;;;;27.10;13.15;;;;;;;2.25;52.61;102140.47;5017185;28;20033;-78
2022/03/10 03:32:45;;;;;;;30.15;13.35;;;;;;;2.24;52.90;102146.47;5011411;28;20029;-78
2022/03/10 03:35:10;;;;;;;35.42;14.10;;;;;;;2.31;52.86;102148.69;5012072;28;20489;-78
2022/03/10 03:37:36;;;;;;;31.83;15.07;;;;;;;2.26;52.93;102153.19;5011902;28;20033;-78
2022/03/10 03:40:02;;;;;;;32.53;14.18;;;;;;;2.14;53.42;102157.13;4997657;28;20034;-78
2022/03/10 03:42:32;;;;;;;30.42;14.80;;;;;;;1.95;54.02;102153.72;5005592;28;20072;-78
2022/03/10 03:44:58;;;;;;;33.50;14.63;;;;;;;1.89;54.13;102154.81;5012628;28;20026;-78
2022/03/10 03:47:23;;;;;;;33.03;15.45;;;;;;;1.94;54.17;102154.59;5018907;28;20427;-77
2022/03/10 03:49:49;;;;;;;30.00;14.32;;;;;;;2.01;53.87;102150.06;5011188;28;20041;-78
2022/03/10 03:52:14;;;;;;;29.98;14.40;;;;;;;2.02;53.60;102155.13;5023860;28;20033;-78
2022/03/10 03:54:40;;;;;;;32.80;14.98;;;;;;;1.97;53.83;102162.16;5000066;28;20036;-77
2022/03/10 03:57:05;;;;;;;30.42;14.32;;;;;;;1.88;54.23;102149.75;5015772;28;20474;-78
2022/03/10 03:59:30;;;;;;;36.08;16.17;;;;;;;1.81;54.89;102156.88;5012278;28;20032;-77
2022/03/10 04:01:56;;;;;;;32.25;15.60;;;;;;;1.86;54.54;102154.13;5011150;28;20033;-77
2022/03/10 04:04:22;;;;;;;29.98;15.07;;;;;;;1.76;54.82;102158.78;5001608;28;20041;-77
2022/03/10 04:06:48;;;;;;;32.20;14.52;;;;;;;1.78;54.91;102162.13;5022365;28;20032;-77
2022/03/10 04:09:14;;;;;;;34.28;15.00;;;;;;;1.88;54.82;102160.00;4995804;28;20044;-78
2022/03/10 04:11:39;;;;;;;31.25;13.05;;;;;;;1.95;54.10;102148.59;5024552;28;20446;-77
2022/03/10 04:14:05;;;;;;;34.38;15.45;;;;;;;1.91;54.54;102157.31;4994135;28;20088;-78
2022/03/10 04:16:31;;;;;;;35.22;15.13;;;;;;;1.89;54.80;102161.66;4993056;28;20102;-78
2022/03/10 04:18:56;;;;;;;33.53;15.18;;;;;;;1.82;55.11;102155.16;4997044;28;20383;-77
2022/03/10 04:21:21;;;;;;;35.15;14.52;;;;;;;1.86;55.21;102165.16;4998739;28;20039;-78
2022/03/10 04:23:47;;;;;;;30.88;13.55;;;;;;;1.89;55.27;102162.50;5002824;28;20392;-78
2022/03/10 04:26:12;;;;;;;31.27;14.57;;;;;;;1.75;55.69;102170.75;5009771;28;20037;-77
2022/03/10 04:28:38;;;;;;;38.05;15.68;;;;;;;1.69;55.88;102160.78;4999741;28;20037;-78
2022/03/10 04:31:04;;;;;;;33.15;14.38;;;;;;;1.89;55.42;102159.09;4999591;28;20037;-78
2022/03/10 04:33:29;;;;;;;32.03;14.98;;;;;;;1.84;55.05;102161.03;5008489;28;20450;-78
2022/03/10 04:35:56;;;;;;;30.40;15.30;;;;;;;1.98;54.62;102161.28;5015076;28;20048;-78
2022/03/10 04:38:22;;;;;;;31.20;13.90;;;;;;;1.90;55.24;102159.03;5013065;28;20530;-78
2022/03/10 04:40:47;;;;;;;30.83;14.75;;;;;;;1.90;55.01;102164.16;5002093;28;20069;-78
2022/03/10 04:43:13;;;;;;;37.65;15.05;;;;;;;1.95;54.66;102162.22;4994724;28;20025;-77
2022/03/10 04:45:39;;;;;;;31.23;14.65;;;;;;;1.95;55.22;102162.22;5008020;28;20041;-77
2022/03/10 04:48:06;;;;;;;33.95;15.45;;;;;;;1.77;55.86;102172.41;5007464;28;20041;-79
2022/03/10 04:50:33;;;;;;;33.15;16.02;;;;;;;1.73;56.10;102176.81;4992759;28;20099;-78
2022/03/10 04:52:58;;;;;;;34.00;16.67;;;;;;;1.59;56.51;102169.75;5019044;28;20128;-79
2022/03/10 04:55:24;;;;;;;34.72;15.60;;;;;;;1.47;56.79;102173.66;5028540;28;20488;-78
2022/03/10 04:57:50;;;;;;;32.03;16.40;;;;;;;1.51;56.49;102180.28;4990657;28;20048;-77
2022/03/10 05:00:18;;;;;;;38.05;15.52;;;;;;;1.54;56.84;102176.75;5024867;28;20550;-77
2022/03/10 05:02:46;;;;;;;35.30;16.27;;;;;;;1.53;56.65;102180.22;4997622;28;20025;-77
2022/03/10 05:05:12;;;;;;;35.13;15.80;;;;;;;1.52;56.73;102183.66;5016452;28;20116;-77
2022/03/10 05:07:38;;;;;;;34.53;15.15;;;;;;;1.50;56.73;102181.16;5014043;28;20117;-77
2022/03/10 05:10:04;;;;;;;32.05;14.70;;;;;;;1.48;56.72;102179.59;5011258;28;20109;-78
2022/03/10 05:12:29;;;;;;;34.30;15.20;;;;;;;1.45;56.83;102180.56;5013996;28;20044;-78
2022/03/10 05:14:56;;;;;;;36.47;15.88;;;;;;;1.43;57.01;102182.34;5026429;28;20025;-78
2022/03/10 05:17:23;;;;;;;32.05;16.20;;;;;;;1.46;57.34;102174.53;4994937;28;20408;-78
2022/03/10 05:19:50;;;;;;;35.10;16.33;;;;;;;1.45;57.32;102177.13;5015170;28;20233;-77
2022/03/10 05:22:16;;;;;;;41.58;16.20;;;;;;;1.42;57.19;102178.09;4995331;28;20128;-77
2022/03/10 05:24:41;;;;;;;38.75;15.68;;;;;;;1.36;57.81;102173.25;5014828;28;20037;-78
2022/03/10 05:27:07;;;;;;;35.92;15.50;;;;;;;1.50;56.86;102176.06;5010855;28;20109;-78
2022/03/10 05:29:32;;;;;;;41.63;16.45;;;;;;;1.40;57.50;102179.06;5028089;28;20038;-77
2022/03/10 05:31:58;;;;;;;33.08;16.02;;;;;;;1.53;57.12;102186.16;4994580;28;20037;-77
2022/03/10 05:34:23;;;;;;;39.22;16.60;;;;;;;1.42;57.19;102190.06;4996108;28;20415;-77
2022/03/10 05:36:49;;;;;;;31.33;13.60;;;;;;;1.45;57.34;102184.81;5011676;28;20029;-78
2022/03/10 05:39:15;;;;;;;38.60;15.25;;;;;;;1.47;57.43;102183.03;4997798;28;20553;-77
2022/03/10 05:41:41;;;;;;;30.98;14.45;;;;;;;1.37;57.72;102190.25;5009540;28;20037;-77
2022/03/10 05:44:06;;;;;;;37.40;16.13;;;;;;;1.28;58.00;102191.47;5011978;28;20032;-78
2022/03/10 05:46:32;;;;;;;38.33;15.65;;;;;;;1.21;58.24;102197.69;4995056;28;20041;-78
2022/03/10 05:48:57;;;;;;;35.33;15.85;;;;;;;1.32;58.15;102198.09;5011468;28;20484;-77
2022/03/10 05:51:23;;;;;;;35.10;16.30;;;;;;;1.29;58.50;102200.78;5012735;28;20033;-78
2022/03/10 05:53:51;;;;;;;33.63;14.48;;;;;;;1.38;57.98;102196.22;5009098;28;20104;-78
2022/03/10 05:56:17;;;;;;;37.28;16.15;;;;;;;1.43;57.68;102199.38;5007096;28;20052;-77
2022/03/10 05:58:43;;;;;;;34.38;14.93;;;;;;;1.39;57.75;102197.84;5014740;28;20072;-77
2022/03/10 06:01:08;;;;;;;35.92;16.80;;;;;;;1.35;58.25;102203.06;4996762;28;20455;-78
2022/03/10 06:03:34;;;;;;;36.75;16.50;;;;;;;1.41;58.06;102203.72;5012977;28;20040;-77
2022/03/10 06:06:00;;;;;;;33.83;14.10;;;;;;;1.25;58.16;102214.56;5015041;28;20052;-78
2022/03/10 06:08:25;;;;;;;35.35;15.30;;;;;;;1.26;58.26;102207.72;5018613;28;20021;-78
2022/03/10 06:10:51;;;;;;;31.80;15.07;;;;;;;1.28;58.41;102211.91;5011685;28;20377;-77
2022/03/10 06:13:16;;;;;;;35.08;16.30;;;;;;;1.26;58.45;102216.25;5012996;28;20049;-77
2022/03/10 06:15:42;;;;;;;38.38;17.08;;;;;;;1.26;58.82;102208.59;5012960;28;20040;-78
2022/03/10 06:18:08;;;;;;;34.03;16.02;;;;;;;1.27;58.53;102214.53;5017343;28;20115;-78
2022/03/10 06:20:34;;;;;;;36.05;16.73;;;;;;;1.20;58.48;102216.47;5015956;28;20127;-78
2022/03/10 06:23:00;;;;;;;34.55;17.00;;;;;;;1.16;59.04;102214.94;4993438;28;20611;-78
2022/03/10 06:25:26;;;;;;;40.55;17.23;;;;;;;1.21;58.56;102213.03;5018826;28;20040;-77
2022/03/10 06:27:52;;;;;;;35.45;15.57;;;;;;;1.20;58.72;102213.09;4998024;28;20524;-78
2022/03/10 06:30:17;;;;;;;35.90;16.23;;;;;;;1.24;58.76;102219.75;5012118;28;20212;-77
2022/03/10 06:32:43;;;;;;;35.78;16.63;;;;;;;1.29;58.63;102216.09;4999719;28;20033;-77
2022/03/10 06:35:08;;;;;;;38.95;16.55;;;;;;;1.35;58.25;102217.59;4994357;28;20032;-78
2022/03/10 06:37:34;;;;;;;33.88;16.85;;;;;;;1.45;58.41;102218.03;5011448;28;20029;-78
2022/03/10 06:39:59;;;;;;;31.90;16.00;;;;;;;1.48;58.15;102215.38;5000402;28;20021;-78
2022/03/10 06:42:25;;;;;;;32.30;15.32;;;;;;;1.50;58.01;102209.28;5013780;28;20029;-78
2022/03/10 06:44:51;;;;;;;36.85;16.73;;;;;;;1.55;57.93;102219.34;5025716;28;20032;-78
2022/03/10 06:47:16;;;;;;;33.58;15.05;;;;;;;1.52;57.95;102222.03;5012077;28;20038;-79
2022/03/10 06:49:42;;;;;;;34.33;15.52;;;;;;;1.63;57.96;102224.16;5013807;28;20041;-77
2022/03/10 06:52:08;;;;;;;39.45;15.93;;;;;;;1.72;57.27;102222.03;4999735;28;20029;-78
2022/03/10 06:54:34;;;;;;;38.53;15.85;;;;;;;1.77;57.67;102226.94;4998304;28;20029;-77
2022/03/10 06:57:00;;;;;;;34.83;16.25;;;;;;;1.88;57.21;102231.63;5016755;28;20036;-77
2022/03/10 06:59:25;;;;;;;38.35;17.20;;;;;;;2.04;56.95;102231.81;4994165;28;20033;-78
2022/03/10 07:01:50;;;;;;;39.47;17.08;;;;;;;2.29;56.21;102223.91;5011910;28;20480;-77
2022/03/10 07:04:16;;;;;;;31.85;16.33;;;;;;;2.66;55.32;102228.22;5018088;28;20029;-77
2022/03/10 07:06:41;;;;;;;30.58;15.77;;;;;;;3.00;54.34;102224.09;5004740;28;20587;-77
2022/03/10 07:09:07;;;;;;;38.50;16.20;;;;;;;3.37;53.47;102216.38;4995521;28;20047;-78
2022/03/10 07:11:33;;;;;;;37.38;15.40;;;;;;;3.73;52.45;102218.03;5002423;28;20200;-78
2022/03/10 07:13:59;;;;;;;28.05;14.20;;;;;;;3.99;51.35;102220.09;5013730;28;20065;-78
2022/03/10 07:16:25;;;;;;;30.25;14.85;;;;;;;4.22;51.15;102220.66;5010958;28;20476;-77
2022/03/10 07:18:51;;;;;;;32.20;16.08;;;;;;;4.48;49.80;102222.72;4992720;28;20043;-77
2022/03/10 07:21:18;;;;;;;35.10;15.50;;;;;;;4.86;49.24;102217.22;5002276;28;20509;-77
2022/03/10 07:23:43;;;;;;;33.65;15.27;;;;;;;4.76;48.78;102213.50;5015067;28;20045;-77
2022/03/10 07:26:10;;;;;;;33.63;16.30;;;;;;;5.02;48.62;102227.50;5016892;28;20075;-78
2022/03/10 07:28:35;;;;;;;32.28;15.15;;;;;;;5.07;48.76;102227.25;4994610;28;20037;-77
2022/03/10 07:31:01;;;;;;;31.42;15.70;;;;;;;5.37;47.47;102224.69;5017503;28;20045;-78
2022/03/10 07:33:26;;;;;;;36.22;15.60;;;;;;;5.41;47.79;102240.78;5008640;28;20499;-77
2022/03/10 07:35:52;;;;;;;34.22;14.65;;;;;;;5.34;47.76;102237.72;5008811;28;20049;-78
2022/03/10 07:38:17;;;;;;;35.53;14.93;;;;;;;5.42;47.75;102234.72;5007203;28;20029;-77
2022/03/10 07:40:43;;;;;;;33.28;15.07;;;;;;;5.47;47.42;102230.97;4997244;28;20387;-77
2022/03/10 07:43:08;;;;;;;27.88;14.02;;;;;;;5.38;47.68;102230.66;5018009;28;20041;-77
2022/03/10 07:45:34;;;;;;;34.97;15.02;;;;;;;5.43;47.89;102237.19;5013611;28;20033;-76
2022/03/10 07:48:00;;;;;;;33.35;14.38;;;;;;;5.97;46.33;102228.13;4993879;28;20030;-78
2022/03/10 07:50:26;;;;;;;34.95;16.00;;;;;;;5.99;46.28;102231.44;4998460;28;20021;-76
2022/03/10 07:52:51;;;;;;;34.60;15.00;;;;;;;6.09;45.83;102235.13;5035464;28;20541;-77
2022/03/10 07:55:17;;;;;;;31.08;14.85;;;;;;;6.32;45.57;102227.78;4998435;28;20403;-78
2022/03/10 07:57:42;;;;;;;33.92;15.48;;;;;;;6.62;45.42;102231.03;5017327;28;20052;-77
2022/03/10 08:00:09;;;;;;;44.65;16.48;;;;;;;6.78;44.60;102238.66;5010406;28;20041;-77
2022/03/10 08:02:35;;;;;;;37.13;15.00;;;;;;;6.84;44.13;102240.03;5010918;28;20040;-77
2022/03/10 08:05:01;;;;;;;31.83;14.05;;;;;;;7.33;43.66;102233.50;5013830;28;20073;-78
2022/03/10 08:07:32;;;;;;;34.42;14.27;;;;;;;7.73;42.48;102226.50;5023472;28;20590;-77
2022/03/10 08:09:58;;;;;;;31.80;14.65;;;;;;;7.84;42.48;102225.78;5008436;28;20388;-78
2022/03/10 08:12:27;;;;;;;28.15;14.30;;;;;;;8.23;41.92;102229.19;4995836;28;20044;-78
2022/03/10 08:14:52;;;;;;;32.22;14.65;;;;;;;7.89;41.25;102221.16;5008197;28;20362;-77
2022/03/10 08:17:18;;;;;;;29.60;14.18;;;;;;;7.62;41.67;102220.41;5006832;28;20048;-77
2022/03/10 08:19:43;;;;;;;33.10;14.60;;;;;;;7.76;41.47;102223.72;4998500;28;20038;-78
2022/03/10 08:22:09;;;;;;;31.15;15.20;;;;;;;7.67;41.05;102220.94;5009143;28;20033;-74
2022/03/10 08:24:36;;;;;;;32.70;14.32;;;;;;;7.92;41.62;102217.53;5007793;28;20413;-78
2022/03/10 08:27:01;;;;;;;27.92;13.98;;;;;;;8.53;40.20;102221.09;4992995;28;20025;-78
2022/03/10 08:29:26;;;;;;;31.70;13.90;;;;;;;8.89;39.70;102226.31;5000694;28;20118;-76
2022/03/10 08:31:52;;;;;;;29.10;13.50;;;;;;;9.48;38.51;102223.72;5009101;28;20044;-78
2022/03/10 08:34:17;;;;;;;26.27;13.63;;;;;;;9.26;38.65;102214.13;5008373;28;20037;-78
2022/03/10 08:36:44;;;;;;;29.92;13.43;;;;;;;9.24;38.35;102207.41;5024398;28;20563;-76
2022/03/10 08:39:10;;;;;;;34.97;14.23;;;;;;;9.31;38.57;102206.03;4993805;28;20037;-79
2022/03/10 08:41:36;;;;;;;25.25;13.27;;;;;;;9.20;38.59;102206.81;4994482;28;20466;-77
2022/03/10 08:44:02;;;;;;;28.92;14.32;;;;;;;9.19;38.84;102201.75;4992101;28;20123;-78
2022/03/10 08:46:27;;;;;;;33.40;14.35;;;;;;;9.19;38.57;102199.16;5007828;28;20065;-76
2022/03/10 08:48:52;;;;;;;30.40;14.25;;;;;;;9.23;39.32;102203.16;5028733;28;20029;-77
2022/03/10 08:51:18;;;;;;;32.95;14.75;;;;;;;9.80;38.02;102193.75;4997055;28;20036;-77
2022/03/10 08:53:44;;;;;;;31.80;14.20;;;;;;;10.27;37.72;102189.28;4990554;28;20278;-79
2022/03/10 08:56:09;;;;;;;28.60;14.68;;;;;;;10.36;36.91;102185.16;5009185;28;20044;-78
2022/03/10 08:58:35;;;;;;;27.80;13.38;;;;;;;10.27;36.98;102178.91;5006420;28;20095;-78
2022/03/10 09:01:00;;;;;;;27.42;13.73;;;;;;;10.56;37.33;102184.41;4992607;28;20032;-78
2022/03/10 09:03:26;;;;;;;32.50;13.75;;;;;;;10.13;36.39;102177.38;4992326;28;20033;-78
2022/03/10 09:05:52;;;;;;;28.02;13.30;;;;;;;10.56;36.79;102173.22;4991653;28;20673;-77
2022/03/10 09:08:17;;;;;;;24.27;12.93;;;;;;;10.21;36.92;102177.63;4990572;28;20037;-78
2022/03/10 09:10:43;;;;;;;28.17;13.95;;;;;;;10.58;36.88;102177.31;5006802;28;20048;-79
2022/03/10 09:13:08;;;;;;;30.70;13.70;;;;;;;10.63;37.12;102177.78;5015004;28;20028;-79
2022/03/10 09:15:35;;;;;;;29.05;13.73;;;;;;;10.17;37.65;102180.53;5030180;28;20305;-77
2022/03/10 09:18:00;;;;;;;31.90;13.95;;;;;;;10.26;37.12;102183.25;5019031;28;20029;-81
2022/03/10 09:20:26;;;;;;;30.23;13.90;;;;;;;10.49;37.28;102178.88;5013729;28;20083;-80
2022/03/10 09:22:51;;;;;;;29.02;13.30;;;;;;;10.54;36.40;102169.91;5015510;28;20456;-79
2022/03/10 09:25:17;;;;;;;27.45;13.35;;;;;;;10.30;36.64;102174.34;5012107;28;20111;-77
2022/03/10 09:27:43;;;;;;;25.85;12.93;;;;;;;10.20;37.36;102175.13;5013861;28;20056;-78
2022/03/10 09:30:11;;;;;;;29.55;14.07;;;;;;;10.29;37.46;102166.63;5010764;28;20040;-77
2022/03/10 09:32:41;;;;;;;28.90;14.55;;;;;;;10.17;37.53;102168.44;5001573;28;20029;-77
2022/03/10 09:35:09;;;;;;;38.78;14.20;;;;;;;10.06;37.65;102158.91;5022274;28;20040;-78
2022/03/10 09:37:35;;;;;;;28.33;13.85;;;;;;;10.04;38.14;102172.91;5002114;28;20111;-78
2022/03/10 09:40:01;;;;;;;34.75;15.40;;;;;;;10.09;37.81;102163.00;5012800;28;20049;-77
2022/03/10 09:42:29;;;;;;;28.63;13.63;;;;;;;9.97;37.55;102151.00;5013883;28;20754;-79
2022/03/10 09:45:09;;;;;;;26.52;14.07;;;;;;;10.13;37.74;102151.44;5010921;28;20472;-79
2022/03/10 09:47:40;;;;;;;34.42;14.32;;;;;;;10.41;38.32;102147.53;5016674;28;20383;-79
2022/03/10 09:50:10;;;;;;;28.67;15.48;;;;;;;10.26;38.03;102146.94;5029240;28;20048;-78
2022/03/10 09:52:36;;;;;;;27.20;13.90;;;;;;;10.42;38.18;102148.38;4998210;28;20339;-81
2022/03/10 09:55:03;;;;;;;31.67;15.00;;;;;;;10.21;37.99;102143.06;5014132;28;20045;-79
2022/03/10 09:57:29;;;;;;;34.33;15.15;;;;;;;10.19;38.00;102139.78;5027811;23;20049;-72
2022/03/10 09:59:59;;;;;;;29.80;13.80;;;;;;;10.17;38.18;102152.88;5008859;28;20598;-71
2022/03/10 10:02:26;;;;;;;29.27;13.70;;;;;;;10.15;38.34;102146.97;5010096;28;20042;-71
2022/03/10 10:04:52;;;;;;;28.70;13.52;;;;;;;10.27;38.92;102150.38;5012048;28;20121;-71
2022/03/10 10:07:22;;;;;;;31.15;14.60;;;;;;;10.38;39.03;102144.34;4990887;28;20125;-73
2022/03/10 10:09:54;;;;;;;29.83;14.43;;;;;;;10.54;38.26;102139.59;5019770;28;20034;-72
2022/03/10 10:12:24;;;;;;;26.08;13.45;;;;;;;10.64;38.73;102145.72;5006400;28;20030;-71
2022/03/10 10:14:50;;;;;;;29.67;14.48;;;;;;;10.77;38.18;102145.53;5008830;28;20120;-71
2022/03/10 10:17:24;;;;;;;32.75;14.50;;;;;;;10.89;38.89;102141.94;5010180;28;20121;-71
2022/03/10 10:19:54;;;;;;;30.73;15.73;;;;;;;10.96;38.53;102146.63;5009843;28;20472;-71
2022/03/10 10:22:20;;;;;;;35.08;14.38;;;;;;;10.96;38.32;102144.84;5009758;28;20037;-71
2022/03/10 10:25:00;;;;;;;32.78;14.60;;;;;;;11.08;38.10;102137.84;5005517;28;20030;-71
2022/03/10 10:27:34;;;;;;;31.40;14.88;;;;;;;11.24;38.26;102145.16;5010505;28;20038;-71
2022/03/10 10:30:10;;;;;;;31.42;15.57;;;;;;;11.36;36.79;102133.78;5008613;28;20061;-72
2022/03/10 10:32:49;;;;;;;32.03;15.48;;;;;;;11.43;37.58;102132.31;4985303;28;20030;-71
2022/03/10 10:35:20;;;;;;;31.52;16.00;;;;;;;11.39;37.16;102130.91;5012486;28;20048;-71
2022/03/10 10:37:58;;;;;;;34.28;15.90;;;;;;;11.55;37.36;102129.63;4993959;28;20495;-71
2022/03/10 10:40:27;;;;;;;32.28;15.27;;;;;;;11.65;38.01;102133.09;5013603;28;20033;-71
2022/03/10 10:42:54;;;;;;;30.60;15.63;;;;;;;11.76;37.16;102119.19;5016732;28;20037;-71
2022/03/10 10:45:37;;;;;;;33.40;16.73;;;;;;;11.78;37.04;102130.25;5008881;28;20025;-73
2022/03/10 10:48:08;;;;;;;35.28;16.83;;;;;;;11.92;36.60;102127.31;5012324;28;20127;-72
2022/03/10 10:50:44;;;;;;;28.38;16.25;;;;;;;11.87;35.53;102132.09;4992087;28;20030;-72
2022/03/10 10:53:32;;;;;;;34.15;16.58;;;;;;;11.97;36.31;102132.13;5009732;28;20034;-72
2022/03/10 10:55:59;;;;;;;32.80;16.58;;;;;;;11.99;35.67;102117.22;5009495;28;20113;-73
2022/03/10 10:58:25;;;;;;;37.78;16.83;;;;;;;11.93;35.99;102113.38;5010674;28;20033;-71
2022/03/10 11:00:51;;;;;;;35.22;16.13;;;;;;;12.11;36.00;102107.53;5011320;28;20266;-71
2022/03/10 11:03:20;;;;;;;33.35;16.70;;;;;;;12.17;36.55;102104.41;5010913;28;20507;-72
2022/03/10 11:05:47;;;;;;;33.15;16.55;;;;;;;12.05;37.51;102107.13;5008429;28;20052;-72
2022/03/10 11:08:14;;;;;;;35.92;17.25;;;;;;;12.29;36.30;102102.50;5010879;28;20397;-71
2022/03/10 11:10:40;;;;;;;38.28;18.30;;;;;;;12.26;36.08;102103.56;5008107;28;20045;-71
2022/03/10 11:13:06;;;;;;;37.83;17.13;;;;;;;12.35;36.65;102094.97;5003423;28;20022;-73
2022/03/10 11:15:32;;;;;;;36.67;17.27;;;;;;;12.51;35.76;102094.44;5007057;28;20079;-72
2022/03/10 11:17:59;;;;;;;41.83;18.33;;;;;;;12.54;36.61;102093.31;5002463;28;20632;-72
2022/03/10 11:20:26;;;;;;;35.33;17.85;;;;;;;12.64;35.35;102081.16;5002881;28;20142;-71